sensor_id;sensor_type;location;lat;lon;timestamp;P1;durP1;ratioP1;P2;durP2;ratioP2
53775;SDS011;44276;49.534;6.378;2023-04-25T00:00:28;17.58;;;10.05;;
53775;SDS011;44276;49.534;6.378;2023-04-25T00:02:56;18.85;;;9.68;;
53775;SDS011;44276;49.534;6.378;2023-04-25T00:05:27;18.23;;;10.48;;
53775;SDS011;44276;49.534;6.378;2023-04-25T00:07:55;17.52;;;9.48;;
53775;SDS011;44276;49.534;6.378;2023-04-25T00:10:25;18.23;;;9.95;;
53775;SDS011;44276;49.534;6.378;2023-04-25T00:12:53;19.02;;;9.82;;
53775;SDS011;44276;49.534;6.378;2023-04-25T00:15:21;18.55;;;10.75;;
53775;SDS011;44276;49.534;6.378;2023-04-25T00:17:50;18.42;;;9.55;;
53775;SDS011;44276;49.534;6.378;2023-04-25T00:20:19;19.40;;;10.20;;
53775;SDS011;44276;49.534;6.378;2023-04-25T00:22:49;22.63;;;9.88;;
53775;SDS011;44276;49.534;6.378;2023-04-25T00:25:19;15.20;;;8.45;;
53775;SDS011;44276;49.534;6.378;2023-04-25T00:27:47;18.48;;;9.57;;
53775;SDS011;44276;49.534;6.378;2023-04-25T00:30:15;17.45;;;9.50;;
53775;SDS011;44276;49.534;6.378;2023-04-25T00:32:43;20.63;;;10.93;;
53775;SDS011;44276;49.534;6.378;2023-04-25T00:35:12;16.10;;;9.38;;
53775;SDS011;44276;49.534;6.378;2023-04-25T00:37:40;16.60;;;10.27;;
53775;SDS011;44276;49.534;6.378;2023-04-25T00:40:10;15.70;;;8.32;;
53775;SDS011;44276;49.534;6.378;2023-04-25T00:42:38;19.58;;;10.25;;
53775;SDS011;44276;49.534;6.378;2023-04-25T00:45:08;18.15;;;10.05;;
53775;SDS011;44276;49.534;6.378;2023-04-25T00:47:41;19.67;;;9.55;;
53775;SDS011;44276;49.534;6.378;2023-04-25T00:50:11;19.77;;;10.70;;
53775;SDS011;44276;49.534;6.378;2023-04-25T00:52:40;18.35;;;10.65;;
53775;SDS011;44276;49.534;6.378;2023-04-25T00:55:12;18.85;;;10.13;;
53775;SDS011;44276;49.534;6.378;2023-04-25T00:57:42;19.92;;;11.18;;
53775;SDS011;44276;49.534;6.378;2023-04-25T01:00:10;21.30;;;11.20;;
53775;SDS011;44276;49.534;6.378;2023-04-25T01:02:40;30.42;;;11.73;;
53775;SDS011;44276;49.534;6.378;2023-04-25T01:05:11;17.60;;;10.30;;
53775;SDS011;44276;49.534;6.378;2023-04-25T01:07:39;19.75;;;10.27;;
53775;SDS011;44276;49.534;6.378;2023-04-25T01:10:08;22.00;;;11.65;;
53775;SDS011;44276;49.534;6.378;2023-04-25T01:12:38;23.80;;;12.48;;
53775;SDS011;44276;49.534;6.378;2023-04-25T01:15:06;17.67;;;10.93;;
53775;SDS011;44276;49.534;6.378;2023-04-25T01:17:35;18.52;;;9.52;;
53775;SDS011;44276;49.534;6.378;2023-04-25T01:20:04;24.63;;;10.65;;
53775;SDS011;44276;49.534;6.378;2023-04-25T01:22:37;27.67;;;10.88;;
53775;SDS011;44276;49.534;6.378;2023-04-25T01:25:05;20.80;;;12.02;;
53775;SDS011;44276;49.534;6.378;2023-04-25T01:27:36;18.95;;;9.50;;
53775;SDS011;44276;49.534;6.378;2023-04-25T01:30:05;19.52;;;10.00;;
53775;SDS011;44276;49.534;6.378;2023-04-25T01:32:35;21.58;;;10.65;;
53775;SDS011;44276;49.534;6.378;2023-04-25T01:35:05;29.55;;;9.80;;
53775;SDS011;44276;49.534;6.378;2023-04-25T01:37:37;20.67;;;10.07;;
53775;SDS011;44276;49.534;6.378;2023-04-25T01:40:06;25.33;;;12.02;;
53775;SDS011;44276;49.534;6.378;2023-04-25T01:42:37;18.73;;;11.52;;
53775;SDS011;44276;49.534;6.378;2023-04-25T01:45:10;24.67;;;11.77;;
53775;SDS011;44276;49.534;6.378;2023-04-25T01:47:41;20.85;;;10.27;;
53775;SDS011;44276;49.534;6.378;2023-04-25T01:50:13;19.40;;;10.27;;
53775;SDS011;44276;49.534;6.378;2023-04-25T01:52:43;20.15;;;10.55;;
53775;SDS011;44276;49.534;6.378;2023-04-25T01:55:11;22.25;;;12.07;;
53775;SDS011;44276;49.534;6.378;2023-04-25T01:57:39;19.23;;;10.38;;
53775;SDS011;44276;49.534;6.378;2023-04-25T02:00:08;28.50;;;12.35;;
53775;SDS011;44276;49.534;6.378;2023-04-25T02:02:37;20.48;;;10.27;;
53775;SDS011;44276;49.534;6.378;2023-04-25T02:05:07;24.52;;;12.55;;
53775;SDS011;44276;49.534;6.378;2023-04-25T02:07:36;21.75;;;11.50;;
53775;SDS011;44276;49.534;6.378;2023-04-25T02:10:06;20.88;;;10.25;;
53775;SDS011;44276;49.534;6.378;2023-04-25T02:12:35;22.13;;;11.05;;
53775;SDS011;44276;49.534;6.378;2023-04-25T02:15:04;21.33;;;10.88;;
53775;SDS011;44276;49.534;6.378;2023-04-25T02:17:33;25.35;;;12.43;;
53775;SDS011;44276;49.534;6.378;2023-04-25T02:20:02;20.42;;;10.00;;
53775;SDS011;44276;49.534;6.378;2023-04-25T02:22:31;22.35;;;10.52;;
53775;SDS011;44276;49.534;6.378;2023-04-25T02:25:00;20.00;;;10.77;;
53775;SDS011;44276;49.534;6.378;2023-04-25T02:27:32;22.00;;;11.93;;
53775;SDS011;44276;49.534;6.378;2023-04-25T02:30:00;17.73;;;10.98;;
53775;SDS011;44276;49.534;6.378;2023-04-25T02:32:28;19.60;;;10.45;;
53775;SDS011;44276;49.534;6.378;2023-04-25T02:34:56;18.25;;;9.48;;
53775;SDS011;44276;49.534;6.378;2023-04-25T02:37:29;18.77;;;10.48;;
53775;SDS011;44276;49.534;6.378;2023-04-25T02:39:58;19.25;;;11.15;;
53775;SDS011;44276;49.534;6.378;2023-04-25T02:42:26;20.90;;;11.35;;
53775;SDS011;44276;49.534;6.378;2023-04-25T02:44:56;17.75;;;10.48;;
53775;SDS011;44276;49.534;6.378;2023-04-25T02:47:24;20.08;;;10.23;;
53775;SDS011;44276;49.534;6.378;2023-04-25T02:49:52;20.02;;;9.70;;
53775;SDS011;44276;49.534;6.378;2023-04-25T02:52:20;19.55;;;10.52;;
53775;SDS011;44276;49.534;6.378;2023-04-25T02:54:48;23.13;;;11.55;;
53775;SDS011;44276;49.534;6.378;2023-04-25T02:57:17;26.40;;;12.52;;
53775;SDS011;44276;49.534;6.378;2023-04-25T02:59:45;20.10;;;10.70;;
53775;SDS011;44276;49.534;6.378;2023-04-25T03:02:14;21.73;;;9.57;;
53775;SDS011;44276;49.534;6.378;2023-04-25T03:04:43;19.30;;;10.80;;
53775;SDS011;44276;49.534;6.378;2023-04-25T03:07:11;20.52;;;10.02;;
53775;SDS011;44276;49.534;6.378;2023-04-25T03:09:39;26.33;;;12.23;;
53775;SDS011;44276;49.534;6.378;2023-04-25T03:12:07;25.92;;;11.32;;
53775;SDS011;44276;49.534;6.378;2023-04-25T03:14:35;23.88;;;12.45;;
53775;SDS011;44276;49.534;6.378;2023-04-25T03:17:03;24.65;;;12.82;;
53775;SDS011;44276;49.534;6.378;2023-04-25T03:19:33;24.73;;;12.15;;
53775;SDS011;44276;49.534;6.378;2023-04-25T03:22:01;24.35;;;11.07;;
53775;SDS011;44276;49.534;6.378;2023-04-25T03:24:29;23.95;;;12.00;;
53775;SDS011;44276;49.534;6.378;2023-04-25T03:26:57;23.67;;;11.25;;
53775;SDS011;44276;49.534;6.378;2023-04-25T03:29:26;20.75;;;11.40;;
53775;SDS011;44276;49.534;6.378;2023-04-25T03:31:54;20.77;;;11.00;;
53775;SDS011;44276;49.534;6.378;2023-04-25T03:34:23;24.73;;;11.45;;
53775;SDS011;44276;49.534;6.378;2023-04-25T03:36:53;25.88;;;12.80;;
53775;SDS011;44276;49.534;6.378;2023-04-25T03:39:21;29.05;;;12.15;;
53775;SDS011;44276;49.534;6.378;2023-04-25T03:41:49;27.38;;;12.93;;
53775;SDS011;44276;49.534;6.378;2023-04-25T03:44:18;23.92;;;12.57;;
53775;SDS011;44276;49.534;6.378;2023-04-25T03:46:46;28.95;;;13.30;;
53775;SDS011;44276;49.534;6.378;2023-04-25T03:49:14;29.77;;;13.02;;
53775;SDS011;44276;49.534;6.378;2023-04-25T03:51:44;26.00;;;12.45;;
53775;SDS011;44276;49.534;6.378;2023-04-25T03:54:14;26.15;;;13.25;;
53775;SDS011;44276;49.534;6.378;2023-04-25T03:56:42;27.20;;;13.40;;
53775;SDS011;44276;49.534;6.378;2023-04-25T03:59:10;31.27;;;12.95;;
53775;SDS011;44276;49.534;6.378;2023-04-25T04:01:41;26.50;;;11.88;;
53775;SDS011;44276;49.534;6.378;2023-04-25T04:04:09;33.78;;;13.60;;
53775;SDS011;44276;49.534;6.378;2023-04-25T04:06:38;31.05;;;13.93;;
53775;SDS011;44276;49.534;6.378;2023-04-25T04:09:06;31.98;;;15.80;;
53775;SDS011;44276;49.534;6.378;2023-04-25T04:11:38;24.08;;;11.40;;
53775;SDS011;44276;49.534;6.378;2023-04-25T04:14:07;24.33;;;12.82;;
53775;SDS011;44276;49.534;6.378;2023-04-25T04:16:36;28.90;;;13.73;;
53775;SDS011;44276;49.534;6.378;2023-04-25T04:19:04;31.52;;;14.00;;
53775;SDS011;44276;49.534;6.378;2023-04-25T04:21:32;28.17;;;13.07;;
53775;SDS011;44276;49.534;6.378;2023-04-25T04:24:00;26.63;;;13.57;;
53775;SDS011;44276;49.534;6.378;2023-04-25T04:26:29;30.15;;;14.35;;
53775;SDS011;44276;49.534;6.378;2023-04-25T04:29:01;27.88;;;12.80;;
53775;SDS011;44276;49.534;6.378;2023-04-25T04:31:29;26.98;;;13.60;;
53775;SDS011;44276;49.534;6.378;2023-04-25T04:33:58;32.95;;;13.52;;
53775;SDS011;44276;49.534;6.378;2023-04-25T04:36:27;34.22;;;15.43;;
53775;SDS011;44276;49.534;6.378;2023-04-25T04:38:55;37.33;;;14.70;;
53775;SDS011;44276;49.534;6.378;2023-04-25T04:41:24;29.05;;;13.73;;
53775;SDS011;44276;49.534;6.378;2023-04-25T04:43:52;30.70;;;15.90;;
53775;SDS011;44276;49.534;6.378;2023-04-25T04:46:23;30.50;;;14.27;;
53775;SDS011;44276;49.534;6.378;2023-04-25T04:48:51;34.75;;;14.63;;
53775;SDS011;44276;49.534;6.378;2023-04-25T04:51:19;38.58;;;16.70;;
53775;SDS011;44276;49.534;6.378;2023-04-25T04:53:47;33.95;;;14.25;;
53775;SDS011;44276;49.534;6.378;2023-04-25T04:56:16;34.50;;;14.30;;
53775;SDS011;44276;49.534;6.378;2023-04-25T04:58:47;43.40;;;15.60;;
53775;SDS011;44276;49.534;6.378;2023-04-25T05:01:15;35.88;;;16.17;;
53775;SDS011;44276;49.534;6.378;2023-04-25T05:03:45;39.17;;;16.23;;
53775;SDS011;44276;49.534;6.378;2023-04-25T05:06:14;39.47;;;15.15;;
53775;SDS011;44276;49.534;6.378;2023-04-25T05:08:43;42.47;;;17.02;;
53775;SDS011;44276;49.534;6.378;2023-04-25T05:11:11;47.78;;;15.43;;
53775;SDS011;44276;49.534;6.378;2023-04-25T05:13:39;43.03;;;16.60;;
53775;SDS011;44276;49.534;6.378;2023-04-25T05:16:07;31.65;;;16.02;;
53775;SDS011;44276;49.534;6.378;2023-04-25T05:18:35;33.50;;;15.35;;
53775;SDS011;44276;49.534;6.378;2023-04-25T05:21:05;37.17;;;17.10;;
53775;SDS011;44276;49.534;6.378;2023-04-25T05:23:33;30.58;;;16.90;;
53775;SDS011;44276;49.534;6.378;2023-04-25T05:26:01;24.30;;;15.27;;
53775;SDS011;44276;49.534;6.378;2023-04-25T05:28:29;26.40;;;15.40;;
53775;SDS011;44276;49.534;6.378;2023-04-25T05:30:58;23.77;;;14.40;;
53775;SDS011;44276;49.534;6.378;2023-04-25T05:33:26;16.63;;;10.15;;
53775;SDS011;44276;49.534;6.378;2023-04-25T05:35:54;12.82;;;9.20;;
53775;SDS011;44276;49.534;6.378;2023-04-25T05:38:23;9.40;;;6.00;;
53775;SDS011;44276;49.534;6.378;2023-04-25T05:40:52;9.52;;;6.03;;
53775;SDS011;44276;49.534;6.378;2023-04-25T05:43:20;10.15;;;5.78;;
53775;SDS011;44276;49.534;6.378;2023-04-25T05:45:48;9.68;;;5.72;;
53775;SDS011;44276;49.534;6.378;2023-04-25T05:48:16;12.70;;;6.70;;
53775;SDS011;44276;49.534;6.378;2023-04-25T05:50:44;13.90;;;7.03;;
53775;SDS011;44276;49.534;6.378;2023-04-25T05:53:12;9.77;;;6.10;;
53775;SDS011;44276;49.534;6.378;2023-04-25T05:55:42;12.10;;;7.13;;
53775;SDS011;44276;49.534;6.378;2023-04-25T05:58:10;9.88;;;5.93;;
53775;SDS011;44276;49.534;6.378;2023-04-25T06:00:38;11.90;;;6.00;;
53775;SDS011;44276;49.534;6.378;2023-04-25T06:03:07;9.90;;;6.55;;
53775;SDS011;44276;49.534;6.378;2023-04-25T06:05:36;9.77;;;7.25;;
53775;SDS011;44276;49.534;6.378;2023-04-25T06:08:04;11.75;;;7.28;;
53775;SDS011;44276;49.534;6.378;2023-04-25T06:10:33;10.40;;;6.18;;
53775;SDS011;44276;49.534;6.378;2023-04-25T06:13:02;14.07;;;8.90;;
53775;SDS011;44276;49.534;6.378;2023-04-25T06:15:31;12.55;;;7.72;;
53775;SDS011;44276;49.534;6.378;2023-04-25T06:18:00;13.32;;;6.47;;
53775;SDS011;44276;49.534;6.378;2023-04-25T06:20:28;11.65;;;6.85;;
53775;SDS011;44276;49.534;6.378;2023-04-25T06:22:56;8.80;;;5.63;;
53775;SDS011;44276;49.534;6.378;2023-04-25T06:25:25;9.82;;;5.57;;
53775;SDS011;44276;49.534;6.378;2023-04-25T06:27:53;9.10;;;6.18;;
53775;SDS011;44276;49.534;6.378;2023-04-25T06:30:22;8.30;;;4.82;;
53775;SDS011;44276;49.534;6.378;2023-04-25T06:32:51;7.72;;;4.57;;
53775;SDS011;44276;49.534;6.378;2023-04-25T06:35:20;7.60;;;5.25;;
53775;SDS011;44276;49.534;6.378;2023-04-25T06:37:48;6.70;;;4.20;;
53775;SDS011;44276;49.534;6.378;2023-04-25T06:40:16;8.68;;;5.25;;
53775;SDS011;44276;49.534;6.378;2023-04-25T06:42:44;9.80;;;5.68;;
53775;SDS011;44276;49.534;6.378;2023-04-25T06:45:12;6.63;;;4.10;;
53775;SDS011;44276;49.534;6.378;2023-04-25T06:47:42;8.43;;;5.78;;
53775;SDS011;44276;49.534;6.378;2023-04-25T06:50:10;8.35;;;5.75;;
53775;SDS011;44276;49.534;6.378;2023-04-25T06:52:38;10.98;;;6.38;;
53775;SDS011;44276;49.534;6.378;2023-04-25T06:55:06;6.95;;;5.00;;
53775;SDS011;44276;49.534;6.378;2023-04-25T06:57:35;9.18;;;5.95;;
53775;SDS011;44276;49.534;6.378;2023-04-25T07:00:04;12.98;;;6.10;;
53775;SDS011;44276;49.534;6.378;2023-04-25T07:02:35;8.02;;;5.53;;
53775;SDS011;44276;49.534;6.378;2023-04-25T07:05:05;10.80;;;6.38;;
53775;SDS011;44276;49.534;6.378;2023-04-25T07:07:33;10.63;;;6.00;;
53775;SDS011;44276;49.534;6.378;2023-04-25T07:10:01;11.70;;;5.75;;
53775;SDS011;44276;49.534;6.378;2023-04-25T07:12:30;10.48;;;6.65;;
53775;SDS011;44276;49.534;6.378;2023-04-25T07:14:58;9.48;;;4.85;;
53775;SDS011;44276;49.534;6.378;2023-04-25T07:17:32;9.85;;;5.57;;
53775;SDS011;44276;49.534;6.378;2023-04-25T07:20:00;9.23;;;5.40;;
53775;SDS011;44276;49.534;6.378;2023-04-25T07:22:31;9.57;;;5.90;;
53775;SDS011;44276;49.534;6.378;2023-04-25T07:24:59;9.38;;;6.20;;
53775;SDS011;44276;49.534;6.378;2023-04-25T07:27:27;9.60;;;6.80;;
53775;SDS011;44276;49.534;6.378;2023-04-25T07:29:55;11.20;;;6.05;;
53775;SDS011;44276;49.534;6.378;2023-04-25T07:32:24;11.45;;;6.72;;
53775;SDS011;44276;49.534;6.378;2023-04-25T07:34:53;10.93;;;5.80;;
53775;SDS011;44276;49.534;6.378;2023-04-25T07:37:21;11.90;;;6.43;;
53775;SDS011;44276;49.534;6.378;2023-04-25T07:39:51;10.82;;;7.18;;
53775;SDS011;44276;49.534;6.378;2023-04-25T07:42:19;11.85;;;7.80;;
53775;SDS011;44276;49.534;6.378;2023-04-25T07:44:47;9.73;;;5.90;;
53775;SDS011;44276;49.534;6.378;2023-04-25T07:47:16;10.30;;;6.57;;
53775;SDS011;44276;49.534;6.378;2023-04-25T07:49:45;10.55;;;5.85;;
53775;SDS011;44276;49.534;6.378;2023-04-25T07:52:13;11.57;;;6.53;;
53775;SDS011;44276;49.534;6.378;2023-04-25T07:54:41;8.77;;;5.47;;
53775;SDS011;44276;49.534;6.378;2023-04-25T07:57:11;10.38;;;6.28;;
53775;SDS011;44276;49.534;6.378;2023-04-25T07:59:40;13.95;;;6.40;;
53775;SDS011;44276;49.534;6.378;2023-04-25T08:02:08;15.95;;;6.25;;
53775;SDS011;44276;49.534;6.378;2023-04-25T08:04:36;11.07;;;6.28;;
53775;SDS011;44276;49.534;6.378;2023-04-25T08:07:04;12.52;;;6.18;;
53775;SDS011;44276;49.534;6.378;2023-04-25T08:09:33;12.27;;;6.97;;
53775;SDS011;44276;49.534;6.378;2023-04-25T08:12:02;8.57;;;6.35;;
53775;SDS011;44276;49.534;6.378;2023-04-25T08:14:32;10.82;;;6.35;;
53775;SDS011;44276;49.534;6.378;2023-04-25T08:17:03;13.27;;;5.35;;
53775;SDS011;44276;49.534;6.378;2023-04-25T08:19:31;18.63;;;7.38;;
53775;SDS011;44276;49.534;6.378;2023-04-25T08:21:59;8.40;;;5.00;;
53775;SDS011;44276;49.534;6.378;2023-04-25T08:24:28;10.32;;;5.93;;
53775;SDS011;44276;49.534;6.378;2023-04-25T08:26:56;8.90;;;4.50;;
53775;SDS011;44276;49.534;6.378;2023-04-25T08:29:25;11.57;;;5.18;;
53775;SDS011;44276;49.534;6.378;2023-04-25T08:31:56;13.23;;;4.70;;
53775;SDS011;44276;49.534;6.378;2023-04-25T08:34:24;9.10;;;5.78;;
53775;SDS011;44276;49.534;6.378;2023-04-25T08:36:52;13.60;;;4.38;;
53775;SDS011;44276;49.534;6.378;2023-04-25T08:39:20;14.70;;;5.28;;
53775;SDS011;44276;49.534;6.378;2023-04-25T08:41:48;11.45;;;4.95;;
53775;SDS011;44276;49.534;6.378;2023-04-25T08:44:18;11.07;;;5.78;;
53775;SDS011;44276;49.534;6.378;2023-04-25T08:46:48;9.90;;;4.30;;
53775;SDS011;44276;49.534;6.378;2023-04-25T08:49:18;11.30;;;3.75;;
53775;SDS011;44276;49.534;6.378;2023-04-25T08:51:46;11.10;;;3.88;;
53775;SDS011;44276;49.534;6.378;2023-04-25T08:54:17;12.95;;;3.70;;
53775;SDS011;44276;49.534;6.378;2023-04-25T08:57:01;7.60;;;4.35;;
53775;SDS011;44276;49.534;6.378;2023-04-25T08:59:31;6.80;;;3.47;;
53775;SDS011;44276;49.534;6.378;2023-04-25T09:02:01;6.07;;;3.67;;
53775;SDS011;44276;49.534;6.378;2023-04-25T09:04:31;6.07;;;4.55;;
53775;SDS011;44276;49.534;6.378;2023-04-25T09:07:00;6.72;;;3.83;;
53775;SDS011;44276;49.534;6.378;2023-04-25T09:09:29;7.53;;;4.20;;
53775;SDS011;44276;49.534;6.378;2023-04-25T09:11:57;10.57;;;3.83;;
53775;SDS011;44276;49.534;6.378;2023-04-25T09:14:25;6.40;;;3.45;;
53775;SDS011;44276;49.534;6.378;2023-04-25T09:16:57;9.32;;;4.85;;
53775;SDS011;44276;49.534;6.378;2023-04-25T09:19:30;5.72;;;3.35;;
53775;SDS011;44276;49.534;6.378;2023-04-25T09:24:35;6.35;;;4.20;;
53775;SDS011;44276;49.534;6.378;2023-04-25T09:27:06;9.05;;;3.83;;
53775;SDS011;44276;49.534;6.378;2023-04-25T09:29:37;7.97;;;4.80;;
53775;SDS011;44276;49.534;6.378;2023-04-25T09:34:55;7.93;;;3.50;;
53775;SDS011;44276;49.534;6.378;2023-04-25T09:37:25;6.88;;;3.33;;
53775;SDS011;44276;49.534;6.378;2023-04-25T09:39:56;9.82;;;3.50;;
53775;SDS011;44276;49.534;6.378;2023-04-25T09:42:29;6.68;;;3.28;;
53775;SDS011;44276;49.534;6.378;2023-04-25T09:44:58;9.02;;;4.03;;
53775;SDS011;44276;49.534;6.378;2023-04-25T09:47:28;9.90;;;3.65;;
53775;SDS011;44276;49.534;6.378;2023-04-25T09:49:57;8.45;;;3.55;;
53775;SDS011;44276;49.534;6.378;2023-04-25T09:52:25;10.80;;;3.80;;
53775;SDS011;44276;49.534;6.378;2023-04-25T09:54:53;9.15;;;4.10;;
53775;SDS011;44276;49.534;6.378;2023-04-25T09:57:23;6.68;;;3.85;;
53775;SDS011;44276;49.534;6.378;2023-04-25T09:59:52;9.38;;;4.45;;
53775;SDS011;44276;49.534;6.378;2023-04-25T10:02:23;11.73;;;4.85;;
53775;SDS011;44276;49.534;6.378;2023-04-25T10:04:54;5.45;;;3.70;;
53775;SDS011;44276;49.534;6.378;2023-04-25T10:07:25;8.18;;;3.78;;
53775;SDS011;44276;49.534;6.378;2023-04-25T10:09:58;6.60;;;3.35;;
53775;SDS011;44276;49.534;6.378;2023-04-25T10:12:30;10.88;;;3.20;;
53775;SDS011;44276;49.534;6.378;2023-04-25T10:15:00;8.18;;;2.88;;
53775;SDS011;44276;49.534;6.378;2023-04-25T10:17:31;9.57;;;3.53;;
53775;SDS011;44276;49.534;6.378;2023-04-25T10:20:00;5.90;;;2.88;;
53775;SDS011;44276;49.534;6.378;2023-04-25T10:22:34;19.27;;;4.85;;
53775;SDS011;44276;49.534;6.378;2023-04-25T10:25:05;5.65;;;2.58;;
53775;SDS011;44276;49.534;6.378;2023-04-25T10:27:35;5.22;;;2.33;;
53775;SDS011;44276;49.534;6.378;2023-04-25T10:30:04;19.27;;;4.78;;
53775;SDS011;44276;49.534;6.378;2023-04-25T10:32:37;5.35;;;2.88;;
53775;SDS011;44276;49.534;6.378;2023-04-25T10:35:12;4.30;;;2.10;;
53775;SDS011;44276;49.534;6.378;2023-04-25T10:38:04;4.75;;;2.55;;
53775;SDS011;44276;49.534;6.378;2023-04-25T10:40:33;4.38;;;1.67;;
53775;SDS011;44276;49.534;6.378;2023-04-25T10:46:12;5.40;;;2.17;;
53775;SDS011;44276;49.534;6.378;2023-04-25T10:48:49;4.40;;;1.67;;
53775;SDS011;44276;49.534;6.378;2023-04-25T10:51:19;2.58;;;2.03;;
53775;SDS011;44276;49.534;6.378;2023-04-25T10:53:58;4.30;;;1.38;;
53775;SDS011;44276;49.534;6.378;2023-04-25T10:56:29;3.10;;;1.75;;
53775;SDS011;44276;49.534;6.378;2023-04-25T10:59:02;2.85;;;1.17;;
53775;SDS011;44276;49.534;6.378;2023-04-25T11:01:40;2.28;;;1.50;;
53775;SDS011;44276;49.534;6.378;2023-04-25T11:04:20;2.35;;;1.55;;
53775;SDS011;44276;49.534;6.378;2023-04-25T11:06:55;3.58;;;2.05;;
53775;SDS011;44276;49.534;6.378;2023-04-25T11:09:37;3.17;;;1.65;;
53775;SDS011;44276;49.534;6.378;2023-04-25T11:12:08;4.07;;;1.95;;
53775;SDS011;44276;49.534;6.378;2023-04-25T11:14:38;5.38;;;2.38;;
53775;SDS011;44276;49.534;6.378;2023-04-25T11:17:11;4.32;;;1.60;;
53775;SDS011;44276;49.534;6.378;2023-04-25T11:19:39;2.67;;;1.50;;
53775;SDS011;44276;49.534;6.378;2023-04-25T11:22:07;6.07;;;2.30;;
53775;SDS011;44276;49.534;6.378;2023-04-25T11:24:39;3.28;;;2.28;;
53775;SDS011;44276;49.534;6.378;2023-04-25T11:27:07;3.72;;;2.05;;
53775;SDS011;44276;49.534;6.378;2023-04-25T11:29:36;12.55;;;2.60;;
53775;SDS011;44276;49.534;6.378;2023-04-25T11:32:04;3.70;;;1.88;;
53775;SDS011;44276;49.534;6.378;2023-04-25T11:34:33;4.63;;;2.10;;
53775;SDS011;44276;49.534;6.378;2023-04-25T11:37:02;4.63;;;1.48;;
53775;SDS011;44276;49.534;6.378;2023-04-25T11:39:30;5.30;;;2.58;;
53775;SDS011;44276;49.534;6.378;2023-04-25T11:42:00;6.65;;;1.35;;
53775;SDS011;44276;49.534;6.378;2023-04-25T11:44:37;5.03;;;1.60;;
53775;SDS011;44276;49.534;6.378;2023-04-25T11:47:06;4.65;;;1.98;;
53775;SDS011;44276;49.534;6.378;2023-04-25T11:49:35;4.75;;;1.52;;
53775;SDS011;44276;49.534;6.378;2023-04-25T11:52:05;5.85;;;1.83;;
53775;SDS011;44276;49.534;6.378;2023-04-25T11:54:35;3.75;;;1.67;;
53775;SDS011;44276;49.534;6.378;2023-04-25T11:57:05;4.15;;;2.17;;
53775;SDS011;44276;49.534;6.378;2023-04-25T11:59:34;2.75;;;2.00;;
53775;SDS011;44276;49.534;6.378;2023-04-25T12:02:02;4.72;;;1.73;;
53775;SDS011;44276;49.534;6.378;2023-04-25T12:04:33;6.60;;;2.92;;
53775;SDS011;44276;49.534;6.378;2023-04-25T12:07:02;7.65;;;1.98;;
53775;SDS011;44276;49.534;6.378;2023-04-25T12:09:33;5.75;;;1.73;;
53775;SDS011;44276;49.534;6.378;2023-04-25T12:12:01;7.32;;;1.90;;
53775;SDS011;44276;49.534;6.378;2023-04-25T12:14:32;7.63;;;2.53;;
53775;SDS011;44276;49.534;6.378;2023-04-25T12:17:03;4.80;;;1.70;;
53775;SDS011;44276;49.534;6.378;2023-04-25T12:19:34;10.48;;;2.13;;
53775;SDS011;44276;49.534;6.378;2023-04-25T12:22:18;3.53;;;1.88;;
53775;SDS011;44276;49.534;6.378;2023-04-25T12:24:48;2.78;;;1.75;;
53775;SDS011;44276;49.534;6.378;2023-04-25T12:27:19;3.17;;;1.52;;
53775;SDS011;44276;49.534;6.378;2023-04-25T12:29:52;4.70;;;2.20;;
53775;SDS011;44276;49.534;6.378;2023-04-25T12:32:21;6.90;;;1.77;;
53775;SDS011;44276;49.534;6.378;2023-04-25T12:34:50;6.95;;;1.88;;
53775;SDS011;44276;49.534;6.378;2023-04-25T12:37:18;6.10;;;2.15;;
53775;SDS011;44276;49.534;6.378;2023-04-25T12:39:47;5.22;;;2.42;;
53775;SDS011;44276;49.534;6.378;2023-04-25T12:42:15;5.07;;;2.38;;
53775;SDS011;44276;49.534;6.378;2023-04-25T12:44:43;5.25;;;2.58;;
53775;SDS011;44276;49.534;6.378;2023-04-25T12:47:14;7.35;;;1.90;;
53775;SDS011;44276;49.534;6.378;2023-04-25T12:49:42;5.68;;;2.00;;
53775;SDS011;44276;49.534;6.378;2023-04-25T12:52:10;5.63;;;2.38;;
53775;SDS011;44276;49.534;6.378;2023-04-25T12:54:38;8.75;;;2.58;;
53775;SDS011;44276;49.534;6.378;2023-04-25T12:57:06;5.18;;;2.03;;
53775;SDS011;44276;49.534;6.378;2023-04-25T12:59:35;4.70;;;2.33;;
53775;SDS011;44276;49.534;6.378;2023-04-25T13:02:03;5.20;;;1.75;;
53775;SDS011;44276;49.534;6.378;2023-04-25T13:04:33;5.57;;;2.47;;
53775;SDS011;44276;49.534;6.378;2023-04-25T13:07:08;5.25;;;2.83;;
53775;SDS011;44276;49.534;6.378;2023-04-25T13:09:39;7.55;;;2.22;;
53775;SDS011;44276;49.534;6.378;2023-04-25T13:12:10;6.65;;;1.88;;
53775;SDS011;44276;49.534;6.378;2023-04-25T13:14:38;6.63;;;2.22;;
53775;SDS011;44276;49.534;6.378;2023-04-25T13:17:06;4.82;;;2.00;;
53775;SDS011;44276;49.534;6.378;2023-04-25T13:19:36;6.10;;;2.05;;
53775;SDS011;44276;49.534;6.378;2023-04-25T13:22:05;9.32;;;2.25;;
53775;SDS011;44276;49.534;6.378;2023-04-25T13:24:33;4.15;;;1.58;;
53775;SDS011;44276;49.534;6.378;2023-04-25T13:27:02;6.05;;;2.00;;
53775;SDS011;44276;49.534;6.378;2023-04-25T13:29:30;7.20;;;2.42;;
53775;SDS011;44276;49.534;6.378;2023-04-25T13:32:00;4.75;;;1.95;;
53775;SDS011;44276;49.534;6.378;2023-04-25T13:34:29;6.97;;;2.20;;
53775;SDS011;44276;49.534;6.378;2023-04-25T13:36:58;4.63;;;1.80;;
53775;SDS011;44276;49.534;6.378;2023-04-25T13:39:27;4.70;;;1.77;;
53775;SDS011;44276;49.534;6.378;2023-04-25T13:41:55;7.00;;;2.60;;
53775;SDS011;44276;49.534;6.378;2023-04-25T13:44:23;6.45;;;2.83;;
53775;SDS011;44276;49.534;6.378;2023-04-25T13:46:51;9.13;;;2.80;;
53775;SDS011;44276;49.534;6.378;2023-04-25T13:49:19;3.60;;;1.70;;
53775;SDS011;44276;49.534;6.378;2023-04-25T13:51:49;6.05;;;2.47;;
53775;SDS011;44276;49.534;6.378;2023-04-25T13:54:18;3.47;;;1.38;;
53775;SDS011;44276;49.534;6.378;2023-04-25T13:56:46;8.07;;;2.05;;
53775;SDS011;44276;49.534;6.378;2023-04-25T13:59:15;7.65;;;1.85;;
53775;SDS011;44276;49.534;6.378;2023-04-25T14:01:43;6.38;;;2.03;;
53775;SDS011;44276;49.534;6.378;2023-04-25T14:04:11;5.20;;;1.83;;
53775;SDS011;44276;49.534;6.378;2023-04-25T14:06:39;5.65;;;1.88;;
53775;SDS011;44276;49.534;6.378;2023-04-25T14:09:07;8.63;;;2.35;;
53775;SDS011;44276;49.534;6.378;2023-04-25T14:11:38;13.95;;;2.05;;
53775;SDS011;44276;49.534;6.378;2023-04-25T14:14:08;5.25;;;2.05;;
53775;SDS011;44276;49.534;6.378;2023-04-25T14:16:36;3.92;;;2.15;;
53775;SDS011;44276;49.534;6.378;2023-04-25T14:19:05;6.50;;;2.65;;
53775;SDS011;44276;49.534;6.378;2023-04-25T14:21:33;5.63;;;1.58;;
53775;SDS011;44276;49.534;6.378;2023-04-25T14:24:01;4.35;;;1.80;;
53775;SDS011;44276;49.534;6.378;2023-04-25T14:26:31;4.68;;;1.40;;
53775;SDS011;44276;49.534;6.378;2023-04-25T14:29:02;6.57;;;2.00;;
53775;SDS011;44276;49.534;6.378;2023-04-25T14:31:31;6.55;;;2.13;;
53775;SDS011;44276;49.534;6.378;2023-04-25T14:33:59;4.55;;;1.83;;
53775;SDS011;44276;49.534;6.378;2023-04-25T14:36:27;5.13;;;1.95;;
53775;SDS011;44276;49.534;6.378;2023-04-25T14:38:57;5.78;;;1.40;;
53775;SDS011;44276;49.534;6.378;2023-04-25T14:41:25;7.20;;;1.40;;
53775;SDS011;44276;49.534;6.378;2023-04-25T14:43:53;5.70;;;1.65;;
53775;SDS011;44276;49.534;6.378;2023-04-25T14:46:27;3.60;;;1.17;;
53775;SDS011;44276;49.534;6.378;2023-04-25T14:48:55;2.33;;;1.40;;
53775;SDS011;44276;49.534;6.378;2023-04-25T14:51:23;3.13;;;1.48;;
53775;SDS011;44276;49.534;6.378;2023-04-25T14:53:54;4.10;;;1.45;;
53775;SDS011;44276;49.534;6.378;2023-04-25T14:56:23;2.20;;;1.00;;